Time;durP1;ratioP1;P1;durP2;ratioP2;P2;SDS_P1;SDS_P2;PMS_P1;PMS_P2;Temp;Humidity;BMP_temperature;BMP_pressure;BME280_temperature;BME280_humidity;BME280_pressure;Samples;Min_cycle;Max_cycle;Signal;HPM_P1;HPM_P2
2023/12/14 00:02:10;;;;;;;17.73;10.80;;;;;;;;;;5146836;27;20619;-57
2023/12/14 00:04:37;;;;;;;16.90;11.05;;;;;;;;;;5147133;27;20053;-58
2023/12/14 00:07:03;;;;;;;17.27;10.48;;;;;;;;;;5146522;27;20105;-56
2023/12/14 00:09:29;;;;;;;19.60;11.55;;;;;;;;;;5146930;27;20058;-58
2023/12/14 00:11:56;;;;;;;15.20;10.60;;;;;;;;;;5146735;27;20082;-57
2023/12/14 00:14:22;;;;;;;16.48;10.65;;;;;;;;;;5147218;27;20471;-57
2023/12/14 00:16:49;;;;;;;16.15;9.90;;;;;;;;;;5146589;27;20516;-57
2023/12/14 00:19:16;;;;;;;13.30;9.57;;;;;;;;;;5147346;27;20061;-58
2023/12/14 00:21:42;;;;;;;13.27;9.70;;;;;;;;;;5146647;27;20694;-59
2023/12/14 00:24:08;;;;;;;14.18;9.10;;;;;;;;;;5147301;27;20483;-58
2023/12/14 00:26:35;;;;;;;14.95;9.82;;;;;;;;;;5146277;27;20056;-58
2023/12/14 00:29:01;;;;;;;14.52;9.50;;;;;;;;;;5146239;27;20523;-58
2023/12/14 00:31:28;;;;;;;13.52;9.27;;;;;;;;;;5146141;27;20496;-56
2023/12/14 00:33:54;;;;;;;11.75;8.85;;;;;;;;;;5146183;27;20120;-57
2023/12/14 00:36:21;;;;;;;13.25;9.50;;;;;;;;;;5146357;27;20063;-58
2023/12/14 00:38:48;;;;;;;18.77;9.60;;;;;;;;;;5146286;27;20051;-59
2023/12/14 00:41:14;;;;;;;13.93;10.20;;;;;;;;;;5146933;27;20471;-58
2023/12/14 00:43:40;;;;;;;13.73;9.68;;;;;;;;;;5146126;27;20065;-57
2023/12/14 00:46:07;;;;;;;14.90;10.30;;;;;;;;;;5146592;27;20154;-58
2023/12/14 00:48:34;;;;;;;12.40;9.60;;;;;;;;;;5145846;27;20494;-57
2023/12/14 00:51:00;;;;;;;13.13;9.23;;;;;;;;;;5145875;27;20051;-57
2023/12/14 00:53:26;;;;;;;12.32;9.48;;;;;;;;;;5145555;27;20055;-55
2023/12/14 00:55:53;;;;;;;13.20;9.75;;;;;;;;;;5146596;27;20520;-58
2023/12/14 00:58:19;;;;;;;12.52;9.30;;;;;;;;;;5146106;27;20120;-58
2023/12/14 01:00:46;;;;;;;13.23;9.75;;;;;;;;;;5145936;27;20074;-57
2023/12/14 01:03:12;;;;;;;13.13;9.65;;;;;;;;;;5144942;27;20138;-58
2023/12/14 01:05:39;;;;;;;14.23;10.18;;;;;;;;;;5145635;27;20057;-56
2023/12/14 01:08:05;;;;;;;12.75;9.35;;;;;;;;;;5146240;27;20040;-58
2023/12/14 01:10:33;;;;;;;12.88;8.70;;;;;;;;;;5145801;27;20058;-57
2023/12/14 01:12:59;;;;;;;14.38;8.52;;;;;;;;;;5145689;27;20483;-57
2023/12/14 01:15:26;;;;;;;13.07;8.82;;;;;;;;;;5143938;27;20561;-57
2023/12/14 01:17:52;;;;;;;11.80;9.23;;;;;;;;;;5146016;27;20051;-57
2023/12/14 01:20:19;;;;;;;11.68;9.00;;;;;;;;;;5145680;27;20409;-57
2023/12/14 01:22:45;;;;;;;12.63;9.35;;;;;;;;;;5145978;27;20055;-58
2023/12/14 01:25:12;;;;;;;14.50;9.45;;;;;;;;;;5145555;27;20051;-58
2023/12/14 01:27:38;;;;;;;13.98;8.63;;;;;;;;;;5144714;27;20047;-58
2023/12/14 01:30:05;;;;;;;12.18;9.10;;;;;;;;;;5146080;27;20055;-58
2023/12/14 01:32:31;;;;;;;12.63;8.70;;;;;;;;;;5144977;27;20317;-58
2023/12/14 01:34:58;;;;;;;14.70;9.85;;;;;;;;;;5144911;27;20059;-58
2023/12/14 01:37:24;;;;;;;15.25;10.25;;;;;;;;;;5145510;27;20081;-57
2023/12/14 01:39:51;;;;;;;14.65;9.40;;;;;;;;;;5145304;27;20475;-58
2023/12/14 01:42:17;;;;;;;13.15;9.63;;;;;;;;;;5145014;27;20057;-58
2023/12/14 01:44:44;;;;;;;12.15;9.57;;;;;;;;;;5145515;27;20047;-57
2023/12/14 01:47:10;;;;;;;11.60;8.60;;;;;;;;;;5145389;27;20066;-57
2023/12/14 01:49:36;;;;;;;14.27;9.45;;;;;;;;;;5144104;27;20051;-58
2023/12/14 01:52:03;;;;;;;11.15;8.32;;;;;;;;;;5145332;27;20070;-57
2023/12/14 01:54:29;;;;;;;12.93;9.00;;;;;;;;;;5144921;27;20094;-57
2023/12/14 01:56:56;;;;;;;13.75;9.02;;;;;;;;;;5144978;27;20505;-57
2023/12/14 01:59:22;;;;;;;11.43;8.55;;;;;;;;;;5145084;27;20149;-57
2023/12/14 02:01:53;;;;;;;13.13;8.90;;;;;;;;;;5145381;27;20132;-58
2023/12/14 02:04:19;;;;;;;12.68;8.63;;;;;;;;;;5144782;27;20054;-57
2023/12/14 02:06:46;;;;;;;12.30;8.80;;;;;;;;;;5144845;27;20047;-58
2023/12/14 02:09:12;;;;;;;14.60;9.52;;;;;;;;;;5144968;27;20082;-57
2023/12/14 02:11:39;;;;;;;15.32;9.75;;;;;;;;;;5145091;27;20055;-58
2023/12/14 02:14:06;;;;;;;13.20;9.23;;;;;;;;;;5144435;27;20039;-58
2023/12/14 02:16:33;;;;;;;12.25;8.80;;;;;;;;;;5144272;27;20459;-58
2023/12/14 02:18:59;;;;;;;12.00;9.30;;;;;;;;;;5144696;27;20502;-57
2023/12/14 02:21:26;;;;;;;12.73;9.52;;;;;;;;;;5144989;27;20088;-57
2023/12/14 02:23:52;;;;;;;13.00;9.93;;;;;;;;;;5144795;27;20051;-57
2023/12/14 02:26:19;;;;;;;13.10;9.60;;;;;;;;;;5145028;27;20050;-57
2023/12/14 02:28:45;;;;;;;12.98;9.10;;;;;;;;;;5144883;27;20378;-57
2023/12/14 02:31:12;;;;;;;11.48;9.23;;;;;;;;;;5144540;27;20467;-58
2023/12/14 02:33:38;;;;;;;13.77;9.27;;;;;;;;;;5144156;27;20055;-57
2023/12/14 02:36:05;;;;;;;11.70;9.13;;;;;;;;;;5144682;27;20047;-56
2023/12/14 02:38:31;;;;;;;15.32;10.25;;;;;;;;;;5143615;27;20047;-58
2023/12/14 02:40:57;;;;;;;13.30;9.57;;;;;;;;;;5144658;27;20051;-57
2023/12/14 02:43:24;;;;;;;12.05;9.45;;;;;;;;;;5144083;27;20544;-57
2023/12/14 02:45:50;;;;;;;14.02;9.85;;;;;;;;;;5144336;27;20055;-58
2023/12/14 02:48:17;;;;;;;14.73;9.40;;;;;;;;;;5144203;27;20119;-56
2023/12/14 02:50:43;;;;;;;13.98;10.13;;;;;;;;;;5144594;27;20053;-57
2023/12/14 02:53:10;;;;;;;13.68;10.85;;;;;;;;;;5144491;27;20134;-58
2023/12/14 02:55:36;;;;;;;13.35;9.90;;;;;;;;;;5144171;27;20174;-58
2023/12/14 02:58:03;;;;;;;13.95;10.23;;;;;;;;;;5144533;27;20054;-57
2023/12/14 03:00:29;;;;;;;15.07;10.27;;;;;;;;;;5144459;27;20055;-57
2023/12/14 03:02:56;;;;;;;13.82;9.43;;;;;;;;;;5142052;27;20108;-57
2023/12/14 03:05:22;;;;;;;13.98;10.27;;;;;;;;;;5144883;27;20047;-58
2023/12/14 03:07:49;;;;;;;15.13;10.45;;;;;;;;;;5144426;27;20062;-57
2023/12/14 03:10:15;;;;;;;16.98;9.98;;;;;;;;;;5144591;27;20189;-56
2023/12/14 03:12:42;;;;;;;19.48;9.85;;;;;;;;;;5144213;27;20127;-57
2023/12/14 03:15:09;;;;;;;14.23;10.00;;;;;;;;;;5143991;27;20070;-59
2023/12/14 03:17:35;;;;;;;15.48;10.52;;;;;;;;;;5143983;27;20136;-57
2023/12/14 03:20:03;;;;;;;13.35;9.77;;;;;;;;;;5143600;27;20055;-56
2023/12/14 03:22:30;;;;;;;13.80;9.77;;;;;;;;;;5143951;27;20055;-56
2023/12/14 03:24:56;;;;;;;15.10;9.82;;;;;;;;;;5143899;27;20047;-59
2023/12/14 03:27:24;;;;;;;14.23;9.93;;;;;;;;;;5146192;27;20067;-57
2023/12/14 03:29:50;;;;;;;18.23;11.30;;;;;;;;;;5147277;27;20488;-58
2023/12/14 03:32:17;;;;;;;13.90;10.23;;;;;;;;;;5146929;27;20055;-58
2023/12/14 03:34:43;;;;;;;17.88;10.77;;;;;;;;;;5147227;27;20051;-56
2023/12/14 03:37:10;;;;;;;13.65;10.93;;;;;;;;;;5147135;27;20055;-57
2023/12/14 03:39:36;;;;;;;16.08;10.80;;;;;;;;;;5147345;27;20043;-59
2023/12/14 03:42:04;;;;;;;17.52;11.73;;;;;;;;;;5147487;27;20077;-58
2023/12/14 03:44:30;;;;;;;19.83;11.15;;;;;;;;;;5146673;27;20051;-58
2023/12/14 03:46:57;;;;;;;17.95;10.88;;;;;;;;;;5145829;27;20059;-57
2023/12/14 03:49:24;;;;;;;21.98;11.60;;;;;;;;;;5147439;27;20802;-58
2023/12/14 03:51:51;;;;;;;17.13;11.68;;;;;;;;;;5146985;27;20985;-58
2023/12/14 03:54:17;;;;;;;17.10;11.23;;;;;;;;;;5147470;27;20408;-57
2023/12/14 03:56:43;;;;;;;20.90;12.40;;;;;;;;;;5147583;27;20085;-56
2023/12/14 03:59:10;;;;;;;17.33;11.60;;;;;;;;;;5146218;27;20059;-57
2023/12/14 04:01:39;;;;;;;15.93;10.40;;;;;;;;;;5147378;27;20051;-56
2023/12/14 04:04:06;;;;;;;15.25;10.20;;;;;;;;;;5146791;27;20515;-57
2023/12/14 04:06:32;;;;;;;17.73;10.65;;;;;;;;;;5146560;27;20670;-56
2023/12/14 04:08:58;;;;;;;15.13;9.98;;;;;;;;;;5147514;27;20593;-58
2023/12/14 04:11:25;;;;;;;18.73;11.43;;;;;;;;;;5146638;27;20108;-58
2023/12/14 04:13:53;;;;;;;15.10;10.90;;;;;;;;;;5146563;27;20135;-58
2023/12/14 04:16:20;;;;;;;15.43;9.60;;;;;;;;;;5146918;27;20537;-58
2023/12/14 04:18:50;;;;;;;15.05;10.15;;;;;;;;;;5146930;27;20058;-56
2023/12/14 04:21:16;;;;;;;14.73;9.23;;;;;;;;;;5146852;27;20057;-57
2023/12/14 04:23:43;;;;;;;16.58;9.32;;;;;;;;;;5146984;27;20686;-58
2023/12/14 04:26:09;;;;;;;12.85;8.63;;;;;;;;;;5146590;27;20055;-58
2023/12/14 04:28:36;;;;;;;12.98;8.93;;;;;;;;;;5146060;27;20058;-58
2023/12/14 04:31:02;;;;;;;12.70;9.27;;;;;;;;;;5145648;27;20054;-58
2023/12/14 04:33:29;;;;;;;12.73;8.98;;;;;;;;;;5145825;27;20063;-56
2023/12/14 04:35:55;;;;;;;11.23;8.60;;;;;;;;;;5146710;27;20140;-58
2023/12/14 04:38:22;;;;;;;12.75;8.63;;;;;;;;;;5146650;27;20078;-57
2023/12/14 04:40:48;;;;;;;12.30;8.25;;;;;;;;;;5146034;27;20051;-58
2023/12/14 04:43:15;;;;;;;12.05;8.63;;;;;;;;;;5146371;27;20055;-58
2023/12/14 04:45:41;;;;;;;13.75;8.48;;;;;;;;;;5145998;27;20061;-57
2023/12/14 04:48:08;;;;;;;14.20;8.00;;;;;;;;;;5146148;27;20055;-57
2023/12/14 04:50:34;;;;;;;14.40;8.00;;;;;;;;;;5146218;27;20187;-58
2023/12/14 04:53:01;;;;;;;13.05;8.80;;;;;;;;;;5146175;27;20134;-57
2023/12/14 04:55:27;;;;;;;17.08;8.98;;;;;;;;;;5146378;27;20538;-58
2023/12/14 04:57:54;;;;;;;13.43;8.43;;;;;;;;;;5145770;27;20055;-58
2023/12/14 05:00:20;;;;;;;14.30;8.23;;;;;;;;;;5146533;27;20054;-57
2023/12/14 05:02:48;;;;;;;16.00;7.50;;;;;;;;;;5146006;27;20100;-56
2023/12/14 05:05:14;;;;;;;13.93;7.78;;;;;;;;;;5145335;27;20074;-55
2023/12/14 05:07:42;;;;;;;13.02;8.10;;;;;;;;;;5127454;27;20117;-56
2023/12/14 05:10:09;;;;;;;13.82;8.75;;;;;;;;;;5141810;27;20109;-57
2023/12/14 05:12:36;;;;;;;13.73;7.80;;;;;;;;;;5145161;27;20100;-57
2023/12/14 05:15:04;;;;;;;11.90;8.40;;;;;;;;;;5145974;27;20587;-56
2023/12/14 05:17:30;;;;;;;16.40;8.32;;;;;;;;;;5137176;27;20751;-57
2023/12/14 05:19:58;;;;;;;14.30;7.88;;;;;;;;;;5125500;27;20051;-56
2023/12/14 05:22:24;;;;;;;12.55;7.85;;;;;;;;;;5125183;27;20146;-58
2023/12/14 05:24:51;;;;;;;10.80;7.57;;;;;;;;;;5143774;27;20440;-58
2023/12/14 05:27:17;;;;;;;12.07;7.47;;;;;;;;;;5144822;27;20081;-57
2023/12/14 05:29:44;;;;;;;13.60;7.60;;;;;;;;;;5145483;27;20047;-56
2023/12/14 05:32:10;;;;;;;16.13;7.20;;;;;;;;;;5144616;27;20159;-57
2023/12/14 05:34:38;;;;;;;14.80;7.60;;;;;;;;;;5140778;27;20060;-58
2023/12/14 05:37:04;;;;;;;9.57;7.00;;;;;;;;;;5125149;27;20127;-57
2023/12/14 05:39:30;;;;;;;13.98;7.18;;;;;;;;;;5124617;27;20565;-57
2023/12/14 05:41:57;;;;;;;11.05;7.47;;;;;;;;;;5130383;27;20051;-57
2023/12/14 05:44:24;;;;;;;11.80;6.88;;;;;;;;;;5126714;27;20079;-56
2023/12/14 05:46:53;;;;;;;10.05;6.50;;;;;;;;;;5124474;27;20506;-56
2023/12/14 05:49:19;;;;;;;9.80;6.65;;;;;;;;;;5126843;27;20117;-57
2023/12/14 05:51:46;;;;;;;12.52;7.18;;;;;;;;;;5144505;27;20055;-56
2023/12/14 05:54:13;;;;;;;11.05;6.93;;;;;;;;;;5124168;27;20581;-58
2023/12/14 05:56:39;;;;;;;11.63;7.78;;;;;;;;;;5123902;27;20054;-57
2023/12/14 05:59:05;;;;;;;9.68;6.75;;;;;;;;;;5134954;27;20055;-57
2023/12/14 06:01:32;;;;;;;10.10;6.53;;;;;;;;;;5142337;27;20055;-59
2023/12/14 06:03:58;;;;;;;10.23;6.40;;;;;;;;;;5144903;27;20056;-57
2023/12/14 06:06:25;;;;;;;9.13;6.57;;;;;;;;;;5144031;27;20039;-58
2023/12/14 06:08:52;;;;;;;9.30;6.18;;;;;;;;;;5145311;27;20523;-58
2023/12/14 06:11:19;;;;;;;8.73;6.47;;;;;;;;;;5145061;27;20047;-58
2023/12/14 06:13:46;;;;;;;9.30;6.43;;;;;;;;;;5128439;27;20073;-56
2023/12/14 06:16:13;;;;;;;9.68;6.97;;;;;;;;;;5124478;27;20507;-56
2023/12/14 06:18:41;;;;;;;9.13;6.15;;;;;;;;;;5137519;27;20127;-57
2023/12/14 06:21:08;;;;;;;9.05;6.78;;;;;;;;;;5143897;27;20471;-56
2023/12/14 06:23:37;;;;;;;8.02;5.85;;;;;;;;;;5136433;27;20055;-55
2023/12/14 06:26:04;;;;;;;10.25;6.32;;;;;;;;;;5128657;27;20055;-56
2023/12/14 06:28:31;;;;;;;8.57;6.38;;;;;;;;;;5144481;27;20055;-57
2023/12/14 06:30:57;;;;;;;8.95;6.47;;;;;;;;;;5144563;27;20047;-55
2023/12/14 06:33:23;;;;;;;9.80;6.30;;;;;;;;;;5142650;27;20146;-56
2023/12/14 06:35:50;;;;;;;10.60;7.00;;;;;;;;;;5132484;27;20051;-57
2023/12/14 06:38:17;;;;;;;8.65;5.60;;;;;;;;;;5144549;27;20440;-60
2023/12/14 06:40:43;;;;;;;9.35;6.72;;;;;;;;;;5144746;27;20086;-57
2023/12/14 06:43:10;;;;;;;9.07;6.28;;;;;;;;;;5143964;27;20352;-57
2023/12/14 06:45:36;;;;;;;9.90;6.68;;;;;;;;;;5144460;27;20576;-58
2023/12/14 06:48:03;;;;;;;11.25;6.40;;;;;;;;;;5144428;27;20536;-57
2023/12/14 06:50:29;;;;;;;11.15;7.13;;;;;;;;;;5141539;27;20052;-58
2023/12/14 06:52:56;;;;;;;9.82;6.95;;;;;;;;;;5132970;27;20055;-58
2023/12/14 06:55:23;;;;;;;9.30;6.57;;;;;;;;;;5144276;27;20053;-57
2023/12/14 06:57:49;;;;;;;9.63;6.75;;;;;;;;;;5144525;27;20047;-57
2023/12/14 07:00:16;;;;;;;9.25;6.95;;;;;;;;;;5145792;27;20055;-58
2023/12/14 07:02:42;;;;;;;11.65;6.65;;;;;;;;;;5147858;27;20536;-58
2023/12/14 07:05:09;;;;;;;10.75;7.60;;;;;;;;;;5158829;27;20057;-58
2023/12/14 07:07:35;;;;;;;9.57;7.28;;;;;;;;;;5152849;27;20047;-57
2023/12/14 07:10:02;;;;;;;9.85;6.80;;;;;;;;;;5146860;27;20100;-57
2023/12/14 07:12:28;;;;;;;13.65;6.93;;;;;;;;;;5147189;27;20414;-57
2023/12/14 07:14:55;;;;;;;10.23;6.82;;;;;;;;;;5147448;27;20055;-58
2023/12/14 07:17:21;;;;;;;12.30;7.07;;;;;;;;;;5146913;27;20054;-58
2023/12/14 07:19:48;;;;;;;11.27;7.30;;;;;;;;;;5147163;27;20066;-58
2023/12/14 07:22:14;;;;;;;10.40;6.88;;;;;;;;;;5146962;27;20234;-58
2023/12/14 07:24:41;;;;;;;11.70;7.35;;;;;;;;;;5146553;27;20432;-56
2023/12/14 07:27:18;;;;;;;10.50;6.82;;;;;;;;;;5146900;27;20051;-57
2023/12/14 07:29:44;;;;;;;9.45;6.70;;;;;;;;;;5147127;27;20112;-57
2023/12/14 07:32:12;;;;;;;10.02;7.00;;;;;;;;;;5146544;27;20087;-58
2023/12/14 07:34:38;;;;;;;9.93;6.70;;;;;;;;;;5145893;27;20066;-56
2023/12/14 07:37:05;;;;;;;11.95;7.63;;;;;;;;;;5147273;27;20043;-57
2023/12/14 07:39:32;;;;;;;9.48;6.80;;;;;;;;;;5145813;27;20058;-58
2023/12/14 07:41:58;;;;;;;12.13;7.65;;;;;;;;;;5146209;27;20131;-57
2023/12/14 07:44:26;;;;;;;9.65;7.53;;;;;;;;;;5146808;27;20059;-58
2023/12/14 07:46:52;;;;;;;10.07;7.45;;;;;;;;;;5146831;27;20067;-57
2023/12/14 07:49:20;;;;;;;13.75;8.50;;;;;;;;;;5146335;27;20047;-57
2023/12/14 07:51:46;;;;;;;8.55;6.32;;;;;;;;;;5145500;27;20109;-56
2023/12/14 07:54:13;;;;;;;11.27;6.97;;;;;;;;;;5146455;27;20768;-57
2023/12/14 07:56:39;;;;;;;10.80;7.10;;;;;;;;;;5146053;27;20051;-56
2023/12/14 07:59:07;;;;;;;11.48;7.68;;;;;;;;;;5146344;27;20055;-55
2023/12/14 08:01:34;;;;;;;12.55;7.70;;;;;;;;;;5145708;27;20047;-56
2023/12/14 08:04:01;;;;;;;9.55;6.80;;;;;;;;;;5145632;27;20182;-57
2023/12/14 08:06:27;;;;;;;11.60;8.52;;;;;;;;;;5145425;27;20521;-57
2023/12/14 08:08:54;;;;;;;10.95;7.78;;;;;;;;;;5145927;27;20078;-57
2023/12/14 08:11:21;;;;;;;10.35;7.57;;;;;;;;;;5146175;27;20047;-56
2023/12/14 08:13:48;;;;;;;9.60;7.60;;;;;;;;;;5145796;27;20422;-57
2023/12/14 08:16:15;;;;;;;9.10;7.15;;;;;;;;;;5146462;27;20058;-57
2023/12/14 08:18:42;;;;;;;10.90;8.30;;;;;;;;;;5146190;27;20062;-57
2023/12/14 08:21:08;;;;;;;9.73;7.32;;;;;;;;;;5145378;27;20077;-56
2023/12/14 08:23:38;;;;;;;12.60;7.70;;;;;;;;;;5145491;27;20100;-58
2023/12/14 08:26:05;;;;;;;10.88;7.07;;;;;;;;;;5146262;27;20530;-58
2023/12/14 08:28:31;;;;;;;10.23;7.28;;;;;;;;;;5145316;27;20051;-57
2023/12/14 08:30:58;;;;;;;12.38;7.70;;;;;;;;;;5146297;27;20058;-57
2023/12/14 08:33:25;;;;;;;11.68;8.48;;;;;;;;;;5143821;27;20476;-57
2023/12/14 08:35:51;;;;;;;11.35;8.60;;;;;;;;;;5145861;27;20058;-55
2023/12/14 08:38:18;;;;;;;13.85;8.07;;;;;;;;;;5145813;27;20054;-57
2023/12/14 08:40:44;;;;;;;10.10;7.25;;;;;;;;;;5146100;27;20046;-57
2023/12/14 08:43:11;;;;;;;10.35;7.70;;;;;;;;;;5146311;27;20063;-57
2023/12/14 08:45:37;;;;;;;20.30;9.02;;;;;;;;;;5144678;27;20058;-57
2023/12/14 08:48:04;;;;;;;11.02;8.25;;;;;;;;;;5145853;27;20646;-57
2023/12/14 08:50:30;;;;;;;10.60;7.82;;;;;;;;;;5144722;27;20047;-57
2023/12/14 08:52:59;;;;;;;13.85;7.88;;;;;;;;;;5155265;27;20086;-57
2023/12/14 08:55:26;;;;;;;12.70;8.77;;;;;;;;;;5160466;27;20058;-57
2023/12/14 08:57:54;;;;;;;16.23;8.00;;;;;;;;;;5146118;27;20059;-58
2023/12/14 09:00:20;;;;;;;12.27;8.35;;;;;;;;;;5144789;27;20052;-57
2023/12/14 09:02:47;;;;;;;11.63;8.65;;;;;;;;;;5144768;27;20044;-56
2023/12/14 09:05:14;;;;;;;10.43;7.15;;;;;;;;;;5144419;27;20057;-58
2023/12/14 09:07:42;;;;;;;11.85;7.60;;;;;;;;;;5144721;27;20057;-58
2023/12/14 09:10:09;;;;;;;11.27;8.43;;;;;;;;;;5139087;27;20047;-57
2023/12/14 09:12:36;;;;;;;11.18;8.48;;;;;;;;;;5143356;27;20502;-56
2023/12/14 09:15:04;;;;;;;11.00;7.95;;;;;;;;;;5134896;27;20048;-55
2023/12/14 09:17:32;;;;;;;10.55;7.43;;;;;;;;;;5158236;27;20099;-56
2023/12/14 09:20:06;;;;;;;13.50;7.93;;;;;;;;;;5142749;27;20047;-58
2023/12/14 09:22:32;;;;;;;13.13;8.90;;;;;;;;;;5137736;27;20051;-57
2023/12/14 09:24:59;;;;;;;13.60;7.95;;;;;;;;;;5138578;27;20051;-59
2023/12/14 09:27:25;;;;;;;11.15;8.10;;;;;;;;;;5144879;27;20047;-55
2023/12/14 09:29:51;;;;;;;12.80;8.63;;;;;;;;;;5145159;27;20047;-58
2023/12/14 09:32:18;;;;;;;10.98;7.95;;;;;;;;;;5144353;27;20055;-56
2023/12/14 09:34:44;;;;;;;13.25;8.10;;;;;;;;;;5144514;27;20840;-58
2023/12/14 09:37:13;;;;;;;10.98;8.20;;;;;;;;;;5144866;27;20062;-57
2023/12/14 09:39:39;;;;;;;11.82;7.78;;;;;;;;;;5144926;27;20369;-54
2023/12/14 09:42:10;;;;;;;12.65;9.15;;;;;;;;;;5144253;27;20115;-58
2023/12/14 09:44:36;;;;;;;10.57;8.40;;;;;;;;;;5144486;27;20167;-58
2023/12/14 09:47:03;;;;;;;12.27;8.25;;;;;;;;;;5144590;27;20055;-58
2023/12/14 09:49:30;;;;;;;9.57;7.07;;;;;;;;;;5143611;27;20519;-56
2023/12/14 09:51:56;;;;;;;12.70;7.82;;;;;;;;;;5144737;27;20077;-56
2023/12/14 09:54:23;;;;;;;12.10;7.65;;;;;;;;;;5155104;27;20142;-55
2023/12/14 09:56:49;;;;;;;12.38;7.90;;;;;;;;;;5152086;27;20070;-56
2023/12/14 09:59:16;;;;;;;8.50;6.68;;;;;;;;;;5143720;27;20544;-56
2023/12/14 10:01:43;;;;;;;9.85;6.93;;;;;;;;;;5144093;27;20047;-55
2023/12/14 10:04:13;;;;;;;10.18;7.90;;;;;;;;;;5144102;27;20051;-57
2023/12/14 10:06:40;;;;;;;11.15;7.40;;;;;;;;;;5144248;27;20055;-56
2023/12/14 10:09:13;;;;;;;8.93;6.50;;;;;;;;;;5144906;27;20055;-57
2023/12/14 10:11:39;;;;;;;9.25;6.13;;;;;;;;;;5144275;27;20124;-54
2023/12/14 10:14:20;;;;;;;9.25;7.47;;;;;;;;;;5144311;27;20461;-55
2023/12/14 10:16:47;;;;;;;10.82;7.05;;;;;;;;;;5143512;27;20504;-56
2023/12/14 10:19:13;;;;;;;9.95;6.30;;;;;;;;;;5144308;27;20058;-57
2023/12/14 10:21:40;;;;;;;10.10;7.13;;;;;;;;;;5143905;27;20061;-56
2023/12/14 10:24:07;;;;;;;9.02;6.82;;;;;;;;;;5143431;27;20054;-56
2023/12/14 10:26:33;;;;;;;8.07;6.45;;;;;;;;;;5143935;27;20047;-56
2023/12/14 10:28:59;;;;;;;9.55;6.70;;;;;;;;;;5144413;27;20067;-56
2023/12/14 10:31:26;;;;;;;10.00;6.65;;;;;;;;;;5135122;27;20729;-55
2023/12/14 10:33:53;;;;;;;12.52;6.93;;;;;;;;;;5134695;27;20124;-57
2023/12/14 10:36:22;;;;;;;10.65;7.68;;;;;;;;;;5143223;27;20496;-57
2023/12/14 10:38:52;;;;;;;10.48;6.97;;;;;;;;;;5143904;27;20055;-58
2023/12/14 10:41:18;;;;;;;10.15;6.70;;;;;;;;;;5142633;27;20054;-57
2023/12/14 10:43:46;;;;;;;10.55;6.60;;;;;;;;;;5144069;27;20094;-57
2023/12/14 10:46:19;;;;;;;9.20;6.50;;;;;;;;;;5143056;27;20051;-56
2023/12/14 10:48:46;;;;;;;9.70;6.75;;;;;;;;;;5143315;27;20047;-60
2023/12/14 10:51:14;;;;;;;10.45;7.15;;;;;;;;;;5144150;27;20053;-57
2023/12/14 10:53:44;;;;;;;8.88;6.13;;;;;;;;;;5143927;27;20043;-57
2023/12/14 10:56:11;;;;;;;9.65;6.88;;;;;;;;;;5142496;27;20612;-57
2023/12/14 10:58:51;;;;;;;9.35;6.70;;;;;;;;;;5124548;27;20055;-56
2023/12/14 11:01:20;;;;;;;8.77;6.65;;;;;;;;;;5128460;27;20055;-56
2023/12/14 11:03:47;;;;;;;9.95;7.05;;;;;;;;;;5126646;27;20055;-57
2023/12/14 11:06:30;;;;;;;7.97;6.18;;;;;;;;;;5132225;27;20069;-56
2023/12/14 11:09:18;;;;;;;8.18;6.20;;;;;;;;;;5143123;27;20044;-57
2023/12/14 11:11:48;;;;;;;14.40;7.05;;;;;;;;;;5143718;27;20101;-56
2023/12/14 11:14:18;;;;;;;9.93;6.88;;;;;;;;;;5143311;27;20162;-56
2023/12/14 11:16:47;;;;;;;9.25;7.03;;;;;;;;;;5143417;27;20455;-57
2023/12/14 11:19:23;;;;;;;10.13;7.82;;;;;;;;;;5143824;27;20137;-57
2023/12/14 11:22:05;;;;;;;11.35;6.40;;;;;;;;;;5143796;27;20426;-58
2023/12/14 11:24:32;;;;;;;8.30;5.78;;;;;;;;;;5143316;27;20438;-57
2023/12/14 11:26:59;;;;;;;7.68;6.07;;;;;;;;;;5143687;27;20138;-57
2023/12/14 11:29:26;;;;;;;9.48;7.28;;;;;;;;;;5142960;27;20055;-57
2023/12/14 11:31:53;;;;;;;11.35;6.50;;;;;;;;;;5143242;27;20051;-56
2023/12/14 11:34:19;;;;;;;11.15;6.80;;;;;;;;;;5142828;27;20420;-56
2023/12/14 11:36:49;;;;;;;8.23;6.13;;;;;;;;;;5141876;27;20043;-56
2023/12/14 11:39:15;;;;;;;9.57;7.38;;;;;;;;;;5140745;27;20077;-55
2023/12/14 11:41:42;;;;;;;9.88;6.55;;;;;;;;;;5143156;27;20523;-56
2023/12/14 11:44:08;;;;;;;11.60;6.25;;;;;;;;;;5141614;27;20051;-57
2023/12/14 11:46:34;;;;;;;8.65;6.70;;;;;;;;;;5142914;27;20054;-57
2023/12/14 11:49:03;;;;;;;7.35;6.55;;;;;;;;;;5146580;27;20063;-58
2023/12/14 11:51:31;;;;;;;8.57;6.20;;;;;;;;;;5146455;27;20051;-56
2023/12/14 11:54:00;;;;;;;8.82;6.75;;;;;;;;;;5147551;27;20082;-56
2023/12/14 11:56:27;;;;;;;8.73;6.22;;;;;;;;;;5145627;27;20566;-56
2023/12/14 11:58:55;;;;;;;8.38;7.05;;;;;;;;;;5140651;27;20055;-58
2023/12/14 12:01:23;;;;;;;9.57;6.82;;;;;;;;;;5127691;27;20819;-57
2023/12/14 12:03:49;;;;;;;10.40;7.28;;;;;;;;;;5142485;27;20082;-58
2023/12/14 12:06:19;;;;;;;9.38;7.15;;;;;;;;;;5134311;27;20104;-57
2023/12/14 12:08:46;;;;;;;10.38;6.90;;;;;;;;;;5141499;27;20463;-56
2023/12/14 12:11:16;;;;;;;8.63;6.43;;;;;;;;;;5141594;27;20055;-57
2023/12/14 12:13:42;;;;;;;10.07;6.80;;;;;;;;;;5146174;27;20047;-57
2023/12/14 12:16:09;;;;;;;9.68;7.38;;;;;;;;;;5146134;27;20079;-58
2023/12/14 12:18:35;;;;;;;10.45;7.07;;;;;;;;;;5144393;27;20058;-56
2023/12/14 12:21:06;;;;;;;9.05;7.07;;;;;;;;;;5137514;27;20104;-55
2023/12/14 12:23:32;;;;;;;9.40;6.85;;;;;;;;;;5140584;27;20081;-57
2023/12/14 12:25:59;;;;;;;9.40;6.75;;;;;;;;;;5125496;27;20142;-58
2023/12/14 12:28:25;;;;;;;8.25;6.40;;;;;;;;;;5143402;27;20063;-58
2023/12/14 12:30:52;;;;;;;7.65;6.10;;;;;;;;;;5146129;27;20385;-57
2023/12/14 12:33:18;;;;;;;9.30;5.82;;;;;;;;;;5145477;27;20051;-56
2023/12/14 12:35:45;;;;;;;7.90;6.00;;;;;;;;;;5146178;27;20567;-57
2023/12/14 12:38:12;;;;;;;7.88;6.32;;;;;;;;;;5146263;27;20067;-57
2023/12/14 12:40:39;;;;;;;11.27;6.50;;;;;;;;;;5145402;27;20055;-57
2023/12/14 12:43:06;;;;;;;9.10;5.82;;;;;;;;;;5144743;27;20239;-58
2023/12/14 12:45:33;;;;;;;8.38;6.55;;;;;;;;;;5145755;27;20505;-57
2023/12/14 12:47:59;;;;;;;10.45;6.95;;;;;;;;;;5145006;27;20560;-55
2023/12/14 12:50:25;;;;;;;8.43;5.93;;;;;;;;;;5143336;27;20047;-56
2023/12/14 12:52:52;;;;;;;8.88;6.53;;;;;;;;;;5135801;27;20490;-55
2023/12/14 12:55:19;;;;;;;8.68;5.82;;;;;;;;;;5142649;27;20104;-55
2023/12/14 12:57:47;;;;;;;8.70;6.40;;;;;;;;;;5146582;27;20513;-57
2023/12/14 13:00:13;;;;;;;7.97;5.70;;;;;;;;;;5165037;27;20054;-58
2023/12/14 13:02:40;;;;;;;10.05;5.72;;;;;;;;;;5145832;27;20043;-58
2023/12/14 13:05:07;;;;;;;6.53;4.93;;;;;;;;;;5145264;27;20051;-57
2023/12/14 13:07:34;;;;;;;5.75;4.47;;;;;;;;;;5144087;27;20059;-57
2023/12/14 13:10:01;;;;;;;6.38;5.10;;;;;;;;;;5144981;27;20054;-57
2023/12/14 13:12:35;;;;;;;5.28;4.10;;;;;;;;;;5145297;27;20086;-56
2023/12/14 13:15:01;;;;;;;7.90;4.50;;;;;;;;;;5145502;27;20139;-56
2023/12/14 13:17:28;;;;;;;7.97;4.50;;;;;;;;;;5144773;27;20140;-56
2023/12/14 13:19:54;;;;;;;5.75;4.45;;;;;;;;;;5144963;27;20132;-56
2023/12/14 13:22:21;;;;;;;7.38;4.65;;;;;;;;;;5145102;27;20100;-56
2023/12/14 13:24:47;;;;;;;6.30;3.67;;;;;;;;;;5145086;27;20079;-56
2023/12/14 13:27:14;;;;;;;5.03;3.70;;;;;;;;;;5145287;27;20070;-56
2023/12/14 13:29:40;;;;;;;6.25;4.75;;;;;;;;;;5154588;27;20517;-56
2023/12/14 13:32:07;;;;;;;9.90;4.22;;;;;;;;;;5159949;27;20139;-55
2023/12/14 13:34:33;;;;;;;5.18;4.28;;;;;;;;;;5143977;27;20059;-57
2023/12/14 13:37:00;;;;;;;5.90;4.00;;;;;;;;;;5145084;27;20131;-58
2023/12/14 13:39:27;;;;;;;5.63;4.25;;;;;;;;;;5147720;27;20206;-57
2023/12/14 13:41:53;;;;;;;7.50;4.35;;;;;;;;;;5144739;27;20077;-58
2023/12/14 13:44:21;;;;;;;10.00;5.07;;;;;;;;;;5144951;27;20434;-57
2023/12/14 13:46:47;;;;;;;5.80;4.88;;;;;;;;;;5144804;27;20059;-57
2023/12/14 13:49:14;;;;;;;6.30;5.05;;;;;;;;;;5137416;27;20058;-57
2023/12/14 13:51:40;;;;;;;7.50;4.97;;;;;;;;;;5144705;27;20051;-56
2023/12/14 13:54:06;;;;;;;6.05;4.55;;;;;;;;;;5144461;27;20051;-57
2023/12/14 13:56:33;;;;;;;7.88;5.00;;;;;;;;;;5144106;27;20058;-57
2023/12/14 13:58:59;;;;;;;7.32;4.70;;;;;;;;;;5144652;27;20078;-57
2023/12/14 14:01:26;;;;;;;7.60;5.32;;;;;;;;;;5144596;27;20574;-58
2023/12/14 14:03:52;;;;;;;6.20;4.95;;;;;;;;;;5144488;27;20452;-56
2023/12/14 14:06:20;;;;;;;7.20;4.82;;;;;;;;;;5144223;27;20399;-58
2023/12/14 14:08:47;;;;;;;6.85;4.85;;;;;;;;;;5142271;27;20055;-57
2023/12/14 14:11:13;;;;;;;6.25;4.72;;;;;;;;;;5143336;27;20055;-56
2023/12/14 14:13:39;;;;;;;9.85;5.50;;;;;;;;;;5144003;27;20047;-57
2023/12/14 14:16:07;;;;;;;7.10;5.18;;;;;;;;;;5144403;27;20051;-57
2023/12/14 14:18:33;;;;;;;8.15;4.72;;;;;;;;;;5143605;27;20099;-56
2023/12/14 14:21:01;;;;;;;9.15;5.43;;;;;;;;;;5143989;27;20136;-56
2023/12/14 14:23:27;;;;;;;9.02;5.50;;;;;;;;;;5143647;27;20059;-55
2023/12/14 14:25:54;;;;;;;5.25;4.53;;;;;;;;;;5144025;27;20078;-56
2023/12/14 14:28:21;;;;;;;8.25;5.57;;;;;;;;;;5144503;27;20134;-57
2023/12/14 14:30:51;;;;;;;6.45;4.97;;;;;;;;;;5144126;27;20528;-54
2023/12/14 14:33:18;;;;;;;7.03;5.00;;;;;;;;;;5143819;27;20592;-55